createdAt,value
2018-05-31T00:00:08.661Z,214.25
2018-05-31T00:00:40.325Z,236.55
2018-05-31T00:01:11.988Z,228.13
2018-05-31T00:01:43.635Z,219.73
2018-05-31T00:02:16.307Z,215.48
2018-05-31T00:02:47.984Z,217.20
2018-05-31T00:03:19.654Z,211.98
2018-05-31T00:03:51.313Z,232.20
2018-05-31T00:04:22.954Z,212.30
2018-05-31T00:04:54.633Z,210.65
2018-05-31T00:05:26.310Z,212.10
2018-05-31T00:05:58.067Z,222.00
2018-05-31T00:06:29.788Z,230.35
2018-05-31T00:07:01.454Z,223.55
2018-05-31T00:07:33.237Z,214.15
2018-05-31T00:08:04.916Z,217.73
2018-05-31T00:08:36.600Z,212.40
2018-05-31T00:09:08.282Z,213.90
2018-05-31T00:09:39.951Z,207.48
2018-05-31T00:10:11.628Z,219.75
2018-05-31T00:10:43.326Z,227.07
2018-05-31T00:11:15.036Z,218.57
2018-05-31T00:11:46.730Z,207.48
2018-05-31T00:12:18.412Z,212.90
2018-05-31T00:12:50.064Z,209.82
2018-05-31T00:13:21.721Z,212.32
2018-05-31T00:13:54.224Z,214.20
2018-05-31T00:14:25.910Z,218.07
2018-05-31T00:14:57.618Z,221.82
2018-05-31T00:15:29.281Z,217.77
2018-05-31T00:16:00.979Z,216.10
2018-05-31T00:16:32.667Z,218.75
2018-05-31T00:17:04.349Z,214.43
2018-05-31T00:17:36.014Z,239.23
2018-05-31T00:18:07.718Z,217.93
2018-05-31T00:18:40.217Z,220.68
2018-05-31T00:19:11.888Z,231.60
2018-05-31T00:19:43.570Z,224.23
2018-05-31T00:20:15.256Z,204.10
2018-05-31T00:20:46.944Z,206.80
2018-05-31T00:21:18.618Z,218.07
2018-05-31T00:21:50.312Z,220.00
2018-05-31T00:22:22.044Z,215.32
2018-05-31T00:22:53.743Z,206.57
2018-05-31T00:23:25.397Z,218.35
2018-05-31T00:23:57.106Z,210.27
2018-05-31T00:24:28.747Z,213.93
2018-05-31T00:25:00.444Z,209.30
2018-05-31T00:25:32.150Z,219.93
2018-05-31T00:26:03.839Z,216.27
2018-05-31T00:26:35.530Z,218.40
2018-05-31T00:27:07.187Z,218.20
2018-05-31T00:27:38.844Z,232.17
2018-05-31T00:28:10.550Z,218.70
2018-05-31T00:28:42.230Z,206.75
2018-05-31T00:29:13.931Z,207.23
2018-05-31T00:29:45.604Z,221.30
2018-05-31T00:30:17.328Z,200.77
2018-05-31T00:30:49.838Z,225.48
2018-05-31T00:31:21.513Z,225.30
2018-05-31T00:31:53.156Z,233.52
2018-05-31T00:32:24.861Z,233.48
2018-05-31T00:32:56.499Z,227.25
2018-05-31T00:33:28.181Z,235.00
2018-05-31T00:33:59.865Z,224.30
2018-05-31T00:34:31.545Z,241.05
2018-05-31T00:35:03.234Z,245.65
2018-05-31T00:35:34.919Z,237.68
2018-05-31T00:36:06.598Z,225.32
2018-05-31T00:36:38.277Z,239.80
2018-05-31T00:37:10.000Z,248.45
2018-05-31T00:37:41.705Z,253.30
2018-05-31T00:38:13.362Z,264.75
2018-05-31T00:38:45.047Z,255.12
2018-05-31T00:39:16.728Z,246.68
2018-05-31T00:39:48.372Z,262.10
2018-05-31T00:40:20.022Z,248.70
2018-05-31T00:40:51.707Z,243.90
2018-05-31T00:41:23.359Z,251.75
2018-05-31T00:41:55.034Z,236.25
2018-05-31T00:42:26.705Z,226.88
2018-05-31T00:42:58.393Z,242.37
2018-05-31T00:43:30.078Z,238.00
2018-05-31T00:44:01.771Z,229.68
2018-05-31T00:44:33.467Z,247.10
2018-05-31T00:45:05.204Z,236.45
2018-05-31T00:45:36.841Z,231.82
2018-05-31T00:46:08.519Z,236.68
2018-05-31T00:46:40.196Z,223.40
2018-05-31T00:47:11.874Z,231.57
2018-05-31T00:47:43.555Z,232.55
2018-05-31T00:48:15.264Z,229.07
2018-05-31T00:48:46.922Z,234.95
2018-05-31T00:49:18.582Z,217.90
2018-05-31T00:49:50.240Z,214.43
2018-05-31T00:50:21.917Z,217.65
2018-05-31T00:50:53.578Z,228.35
2018-05-31T00:51:25.292Z,228.75
2018-05-31T00:51:56.919Z,221.50
2018-05-31T00:52:28.628Z,222.57
2018-05-31T00:53:01.192Z,217.05
2018-05-31T00:53:32.908Z,218.18
2018-05-31T00:54:04.618Z,228.60
2018-05-31T00:54:36.319Z,226.88
2018-05-31T00:55:07.998Z,224.52
2018-05-31T00:55:57.951Z,226.52
2018-05-31T00:56:29.528Z,230.70
2018-05-31T00:57:16.088Z,216.07
2018-05-31T00:57:47.752Z,228.65
2018-05-31T00:58:19.435Z,232.37
2018-05-31T00:58:51.094Z,231.93
2018-05-31T00:59:22.748Z,226.85
2018-05-31T00:59:54.409Z,234.55
2018-05-31T01:00:26.116Z,216.23
2018-05-31T01:00:57.785Z,215.90
2018-05-31T01:01:29.429Z,226.05
2018-05-31T01:02:01.100Z,217.77
2018-05-31T01:02:32.841Z,212.63
2018-05-31T01:03:04.512Z,220.15
2018-05-31T01:03:36.184Z,215.40
2018-05-31T01:04:07.877Z,213.50
2018-05-31T01:04:39.543Z,216.73
2018-05-31T01:05:11.187Z,199.23
2018-05-31T01:05:42.836Z,206.80
2018-05-31T01:06:14.522Z,197.13
2018-05-31T01:06:46.205Z,204.70
2018-05-31T01:07:17.867Z,202.55
2018-05-31T01:07:49.538Z,209.65
2018-05-31T01:08:21.201Z,196.82
2018-05-31T01:08:52.893Z,197.50
2018-05-31T01:09:24.599Z,201.80
2018-05-31T01:09:56.270Z,196.40
2018-05-31T01:10:27.942Z,207.68
2018-05-31T01:10:59.641Z,203.62
2018-05-31T01:11:31.283Z,207.65
2018-05-31T01:12:02.970Z,195.85
2018-05-31T01:12:34.655Z,188.62
2018-05-31T01:13:06.334Z,196.95
2018-05-31T01:13:38.050Z,200.23
2018-05-31T01:14:09.716Z,188.25
2018-05-31T01:14:41.416Z,184.00
2018-05-31T01:15:13.106Z,175.45
2018-05-31T01:15:44.745Z,179.50
2018-05-31T01:16:16.432Z,169.65
2018-05-31T01:16:48.132Z,183.10
2018-05-31T01:17:19.815Z,169.77
2018-05-31T01:18:30.027Z,179.10
2018-05-31T01:19:01.693Z,172.70
2018-05-31T01:19:33.380Z,185.40
2018-05-31T01:20:05.110Z,181.68
2018-05-31T01:20:36.769Z,184.40
2018-05-31T01:21:08.474Z,175.48
2018-05-31T01:21:40.115Z,173.15
2018-05-31T01:22:11.790Z,175.32
2018-05-31T01:22:43.440Z,171.30
2018-05-31T01:23:15.091Z,178.07
2018-05-31T01:23:46.744Z,173.50
2018-05-31T01:24:18.379Z,178.57
2018-05-31T01:24:50.055Z,179.95
2018-05-31T01:25:21.750Z,173.45
2018-05-31T01:25:53.424Z,174.40
2018-05-31T01:26:25.100Z,180.10
2018-05-31T01:26:56.809Z,170.27
2018-05-31T01:27:28.444Z,170.57
2018-05-31T01:28:00.133Z,170.77
2018-05-31T01:28:31.782Z,165.57
2018-05-31T01:29:03.432Z,165.62
2018-05-31T01:29:35.101Z,171.30
2018-05-31T01:30:06.776Z,168.85
2018-05-31T01:30:38.484Z,175.90
2018-05-31T01:31:10.156Z,160.85
2018-05-31T01:31:41.826Z,169.60
2018-05-31T01:32:13.515Z,175.30
2018-05-31T01:32:45.179Z,167.13
2018-05-31T01:33:16.837Z,176.05
2018-05-31T01:33:48.492Z,176.25
2018-05-31T01:34:20.152Z,171.82
2018-05-31T01:34:51.814Z,169.45
2018-05-31T01:35:23.491Z,165.10
2018-05-31T01:35:55.159Z,172.75
2018-05-31T01:36:26.831Z,178.43
2018-05-31T01:36:58.474Z,175.43
2018-05-31T01:37:30.168Z,188.12
2018-05-31T01:38:20.213Z,176.85
2018-05-31T01:38:51.927Z,176.87
2018-05-31T01:39:23.588Z,173.70
2018-05-31T01:39:55.220Z,162.15
2018-05-31T01:40:26.896Z,168.62
2018-05-31T01:40:58.624Z,168.00
2018-05-31T01:41:30.318Z,165.15
2018-05-31T01:42:01.980Z,164.45
2018-05-31T01:42:33.647Z,164.37
2018-05-31T01:43:05.326Z,167.70
2018-05-31T01:43:36.990Z,165.60
2018-05-31T01:44:08.640Z,174.32
2018-05-31T01:44:40.309Z,171.65
2018-05-31T01:45:11.993Z,176.43
2018-05-31T01:45:43.662Z,174.32
2018-05-31T01:46:15.386Z,176.60
2018-05-31T01:46:47.047Z,169.25
2018-05-31T01:47:18.720Z,170.85
2018-05-31T01:47:50.388Z,169.32
2018-05-31T01:48:22.048Z,169.70
2018-05-31T01:48:53.731Z,163.37
2018-05-31T01:49:25.428Z,166.60
2018-05-31T01:49:57.124Z,162.65
2018-05-31T01:50:28.776Z,164.40
2018-05-31T01:51:00.463Z,165.93
2018-05-31T01:51:32.178Z,168.05
2018-05-31T01:52:03.862Z,161.77
2018-05-31T01:52:35.514Z,160.55
2018-05-31T01:53:07.193Z,162.07
2018-05-31T01:53:38.847Z,163.80
2018-05-31T01:54:10.490Z,165.50
2018-05-31T01:54:42.164Z,155.70
2018-05-31T01:55:13.838Z,155.82
2018-05-31T01:55:45.475Z,159.00
2018-05-31T01:56:17.175Z,167.77
2018-05-31T01:56:48.872Z,163.48
2018-05-31T01:57:20.524Z,170.77
2018-05-31T01:57:52.201Z,164.05
2018-05-31T01:58:23.859Z,166.35
2018-05-31T01:58:55.596Z,169.57
2018-05-31T01:59:27.233Z,175.18
2018-05-31T01:59:58.898Z,167.93
2018-05-31T02:00:30.540Z,165.30
2018-05-31T02:01:02.241Z,167.85
2018-05-31T02:01:33.891Z,168.90
2018-05-31T02:02:05.609Z,173.57
2018-05-31T02:02:37.269Z,164.00
2018-05-31T02:03:08.944Z,152.35
2018-05-31T02:03:40.620Z,157.60
2018-05-31T02:04:12.318Z,156.63
2018-05-31T02:04:44.011Z,171.45
2018-05-31T02:05:15.678Z,163.05
2018-05-31T02:05:47.386Z,159.60
2018-05-31T02:06:19.054Z,163.82
2018-05-31T02:06:50.725Z,158.27
2018-05-31T02:07:22.496Z,156.57
2018-05-31T02:07:54.317Z,158.57
2018-05-31T02:08:25.995Z,159.48
2018-05-31T02:08:57.683Z,159.70
2018-05-31T02:09:29.360Z,163.52
2018-05-31T02:10:01.061Z,158.85
2018-05-31T02:10:32.744Z,155.77
2018-05-31T02:11:04.404Z,163.25
2018-05-31T02:11:36.088Z,170.18
2018-05-31T02:12:07.742Z,162.77
2018-05-31T02:12:39.462Z,164.37
2018-05-31T02:13:11.148Z,163.12
2018-05-31T02:13:42.823Z,161.77
2018-05-31T02:14:14.512Z,171.82
2018-05-31T02:14:46.179Z,167.18
2018-05-31T02:15:17.823Z,168.30
2018-05-31T02:25:34.516Z,165.80
2018-05-31T02:26:06.196Z,166.18
2018-05-31T02:26:37.848Z,170.00
2018-05-31T02:27:09.506Z,168.93
2018-05-31T02:27:41.150Z,178.38
2018-05-31T02:28:12.808Z,180.80
2018-05-31T02:28:44.450Z,165.00
2018-05-31T02:29:16.139Z,168.57
2018-05-31T02:29:48.548Z,173.18
2018-05-31T02:30:20.210Z,174.50
2018-05-31T02:30:51.854Z,173.15
2018-05-31T02:31:23.521Z,180.10
2018-05-31T02:31:55.187Z,166.52
2018-05-31T02:32:26.848Z,171.18
2018-05-31T02:32:58.504Z,172.32
2018-05-31T02:33:30.164Z,178.70
2018-05-31T02:34:01.832Z,171.82
2018-05-31T02:34:33.524Z,169.13
2018-05-31T02:35:05.208Z,171.87
2018-05-31T02:35:36.859Z,176.27
2018-05-31T02:36:08.516Z,178.85
2018-05-31T02:36:40.181Z,178.32
2018-05-31T02:37:11.872Z,182.45
2018-05-31T02:37:43.585Z,183.15
2018-05-31T02:38:15.255Z,188.10
2018-05-31T02:38:47.001Z,181.15
2018-05-31T02:39:18.699Z,184.15
2018-05-31T02:39:50.393Z,195.02
2018-05-31T02:40:22.085Z,190.05
2018-05-31T02:40:53.752Z,178.68
2018-05-31T02:41:25.441Z,184.37
2018-05-31T02:41:57.163Z,186.40
2018-05-31T02:42:28.825Z,174.93
2018-05-31T02:43:00.503Z,186.32
2018-05-31T02:43:32.144Z,187.45
2018-05-31T02:44:03.797Z,184.18
2018-05-31T02:44:35.473Z,188.95
2018-05-31T02:45:07.171Z,193.57
2018-05-31T02:45:38.832Z,198.07
2018-05-31T02:46:10.515Z,188.10
2018-05-31T02:46:42.146Z,180.87
2018-05-31T02:47:13.830Z,180.57
2018-05-31T02:47:45.474Z,194.60
2018-05-31T02:48:17.175Z,174.50
2018-05-31T02:48:48.887Z,182.62
2018-05-31T02:49:20.519Z,181.73
2018-05-31T02:49:52.199Z,181.15
2018-05-31T02:50:23.873Z,189.02
2018-05-31T02:50:55.603Z,181.30
2018-05-31T02:51:27.296Z,197.35
2018-05-31T02:51:58.949Z,184.57
2018-05-31T02:52:30.617Z,180.73
2018-05-31T02:53:02.916Z,185.18
2018-05-31T02:53:34.565Z,182.80
2018-05-31T02:54:06.243Z,193.45
2018-05-31T02:54:37.899Z,194.15
2018-05-31T02:55:09.584Z,183.65
2018-05-31T02:55:41.283Z,187.82
2018-05-31T02:56:12.936Z,191.45
2018-05-31T02:56:44.595Z,187.93
2018-05-31T02:57:16.276Z,188.85
2018-05-31T02:57:47.949Z,181.00
2018-05-31T02:58:19.660Z,203.12
2018-05-31T02:58:51.322Z,199.93
2018-05-31T02:59:22.975Z,193.80
2018-05-31T02:59:54.633Z,214.63
2018-05-31T03:00:26.301Z,200.73
2018-05-31T03:00:57.969Z,193.43
2018-05-31T03:01:29.680Z,200.70
2018-05-31T03:02:01.340Z,195.60
2018-05-31T03:02:32.993Z,189.93
2018-05-31T03:03:04.657Z,188.20
2018-05-31T03:03:36.349Z,197.68
2018-05-31T03:04:08.005Z,212.70
2018-05-31T03:04:39.665Z,201.82
2018-05-31T03:05:11.311Z,193.87
2018-05-31T03:05:42.981Z,201.27
2018-05-31T03:06:14.680Z,206.82
2018-05-31T03:06:46.375Z,207.23
2018-05-31T03:07:18.039Z,214.68
2018-05-31T03:07:49.758Z,217.27
2018-05-31T03:08:21.406Z,216.95
2018-05-31T03:08:53.084Z,194.45
2018-05-31T03:09:24.781Z,198.45
2018-05-31T03:09:56.458Z,200.45
2018-05-31T03:10:28.144Z,210.32
2018-05-31T03:10:59.811Z,205.25
2018-05-31T03:11:31.454Z,204.20
2018-05-31T03:12:03.168Z,214.45
2018-05-31T03:12:34.841Z,211.23
2018-05-31T03:13:06.494Z,196.40
2018-05-31T03:13:38.174Z,200.13
2018-05-31T03:14:09.848Z,201.82
2018-05-31T03:14:41.515Z,206.23
2018-05-31T03:15:13.171Z,200.18
2018-05-31T03:15:44.867Z,186.82
2018-05-31T03:16:17.333Z,193.45
2018-05-31T03:16:49.064Z,204.23
2018-05-31T03:17:20.742Z,208.18
2018-05-31T03:17:52.410Z,197.62
2018-05-31T03:18:24.071Z,195.07
2018-05-31T03:18:55.730Z,192.43
2018-05-31T03:19:27.394Z,192.15
2018-05-31T03:19:59.103Z,186.37
2018-05-31T03:20:30.790Z,185.93
2018-05-31T03:21:02.457Z,172.80
2018-05-31T03:21:34.124Z,178.00
2018-05-31T03:22:05.810Z,179.75
2018-05-31T03:22:37.485Z,181.27
2018-05-31T03:23:09.158Z,173.38
2018-05-31T03:23:40.836Z,185.77
2018-05-31T03:24:12.488Z,169.15
2018-05-31T03:24:44.144Z,176.68
2018-05-31T03:25:15.840Z,169.73
2018-05-31T03:25:47.500Z,173.50
2018-05-31T03:26:19.188Z,173.38
2018-05-31T03:26:50.870Z,178.18
2018-05-31T03:27:22.566Z,174.30
2018-05-31T03:27:54.236Z,167.70
2018-05-31T03:28:25.894Z,172.37
2018-05-31T03:28:57.541Z,174.27
2018-05-31T03:29:29.257Z,181.50
2018-05-31T03:30:00.941Z,177.90
2018-05-31T03:30:32.626Z,168.27
2018-05-31T03:31:04.296Z,174.27
2018-05-31T03:31:35.972Z,181.27
2018-05-31T03:32:07.640Z,172.90
2018-05-31T03:32:39.316Z,180.32
2018-05-31T03:33:10.976Z,185.48
2018-05-31T03:33:42.655Z,184.68
2018-05-31T03:34:14.320Z,180.02
2018-05-31T03:34:45.988Z,182.27
2018-05-31T03:35:17.694Z,183.32
2018-05-31T03:35:49.377Z,173.02
2018-05-31T03:37:17.004Z,182.05
2018-05-31T03:37:48.758Z,180.70
2018-05-31T03:38:20.497Z,188.37
2018-05-31T03:38:52.172Z,174.52
2018-05-31T03:39:23.899Z,169.55
2018-05-31T03:39:55.577Z,166.62
2018-05-31T03:40:27.260Z,173.07
2018-05-31T03:40:58.941Z,172.68
2018-05-31T03:41:30.612Z,175.57
2018-05-31T03:42:02.301Z,176.55
2018-05-31T03:42:33.966Z,179.30
2018-05-31T03:43:06.142Z,182.32
2018-05-31T03:43:37.800Z,172.20
2018-05-31T03:44:09.766Z,171.60
2018-05-31T03:44:41.442Z,173.85
2018-05-31T03:45:13.110Z,173.95
2018-05-31T03:45:45.552Z,173.52
2018-05-31T03:46:17.217Z,165.85
2018-05-31T03:46:48.896Z,168.85
2018-05-31T03:47:20.592Z,176.43
2018-05-31T03:47:52.279Z,173.68
2018-05-31T03:48:23.957Z,170.98
2018-05-31T03:48:55.626Z,172.93
2018-05-31T03:49:27.248Z,174.23
2018-05-31T03:49:58.928Z,174.62
2018-05-31T03:50:30.620Z,177.55
2018-05-31T03:51:02.279Z,175.05
2018-05-31T03:51:33.929Z,175.68
2018-05-31T03:52:06.551Z,171.82
2018-05-31T03:52:38.197Z,162.00
2018-05-31T03:53:10.678Z,174.98
2018-05-31T03:53:42.377Z,175.70
2018-05-31T03:54:14.036Z,174.90
2018-05-31T03:54:45.673Z,170.95
2018-05-31T03:55:17.341Z,168.43
2018-05-31T03:55:50.018Z,171.50
2018-05-31T03:56:21.725Z,168.73
2018-05-31T03:56:53.373Z,170.57
2018-05-31T03:57:25.060Z,162.23
2018-05-31T03:57:56.720Z,170.65
2018-05-31T03:58:28.373Z,163.98
2018-05-31T03:59:00.050Z,162.50
2018-05-31T03:59:32.344Z,167.00
2018-05-31T04:00:04.683Z,158.07
2018-05-31T04:00:36.341Z,155.02
2018-05-31T04:01:07.984Z,149.05
2018-05-31T04:01:39.656Z,158.37
2018-05-31T04:02:11.964Z,151.50
2018-05-31T04:02:43.634Z,153.82
2018-05-31T04:03:15.309Z,155.93
2018-05-31T04:03:47.003Z,158.50
2018-05-31T04:04:18.677Z,155.70
2018-05-31T04:04:50.337Z,154.00
2018-05-31T04:05:22.017Z,152.70
2018-05-31T04:05:53.649Z,150.23
2018-05-31T04:06:25.332Z,152.40
2018-05-31T04:06:56.983Z,156.50
2018-05-31T04:07:28.654Z,151.32
2018-05-31T04:08:00.314Z,149.45
2018-05-31T04:08:31.984Z,159.37
2018-05-31T04:09:05.599Z,143.37
2018-05-31T04:09:37.293Z,146.85
2018-05-31T04:10:09.844Z,140.55
2018-05-31T04:10:42.198Z,145.27
2018-05-31T04:11:13.865Z,142.05
2018-05-31T04:11:45.516Z,143.87
2018-05-31T04:12:17.169Z,149.75
2018-05-31T04:12:48.840Z,143.25
2018-05-31T04:13:20.471Z,142.20
2018-05-31T04:13:52.132Z,126.72
2018-05-31T04:14:23.800Z,138.02
2018-05-31T04:14:55.477Z,131.35
2018-05-31T04:15:27.125Z,134.77
2018-05-31T04:15:58.775Z,136.82
2018-05-31T04:16:30.424Z,135.32
2018-05-31T04:17:02.067Z,129.82
2018-05-31T04:17:33.735Z,136.90
2018-05-31T04:18:05.423Z,133.27
2018-05-31T04:18:37.071Z,130.77
2018-05-31T04:19:08.771Z,131.02
2018-05-31T04:19:40.439Z,133.15
2018-05-31T04:20:12.124Z,133.68
2018-05-31T04:20:43.793Z,126.30
2018-05-31T04:21:15.441Z,131.52
2018-05-31T04:21:47.105Z,130.93
2018-05-31T04:22:18.771Z,131.18
2018-05-31T04:22:50.401Z,134.20
2018-05-31T04:23:22.079Z,133.00
2018-05-31T04:23:54.594Z,129.32
2018-05-31T04:24:26.273Z,136.00
2018-05-31T04:24:58.983Z,126.95
2018-05-31T04:25:31.529Z,128.68
2018-05-31T04:26:03.179Z,136.27
2018-05-31T04:26:35.523Z,135.27
2018-05-31T04:27:07.172Z,130.95
2018-05-31T04:27:38.855Z,130.18
2018-05-31T04:28:10.507Z,132.45
2018-05-31T04:28:42.169Z,124.68
2018-05-31T04:29:13.829Z,122.03
2018-05-31T04:29:46.473Z,122.53
2018-05-31T04:30:18.118Z,124.45
2018-05-31T04:30:49.807Z,127.50
2018-05-31T04:31:22.391Z,126.60
2018-05-31T04:31:54.030Z,132.98
2018-05-31T04:32:25.681Z,125.95
2018-05-31T04:32:57.339Z,126.87
2018-05-31T04:33:28.979Z,130.52
2018-05-31T04:34:00.627Z,131.07
2018-05-31T04:34:32.306Z,129.40
2018-05-31T04:35:03.967Z,120.18
2018-05-31T04:35:35.633Z,130.15
2018-05-31T04:36:07.334Z,122.90
2018-05-31T04:36:39.003Z,126.72
2018-05-31T04:37:10.641Z,121.37
2018-05-31T04:37:42.299Z,120.03
2018-05-31T04:38:13.966Z,123.28
2018-05-31T04:38:46.607Z,123.10
2018-05-31T04:39:18.264Z,115.57
2018-05-31T04:39:49.911Z,115.75
2018-05-31T04:40:21.599Z,116.97
2018-05-31T04:40:53.245Z,124.30
2018-05-31T04:41:24.931Z,124.12
2018-05-31T04:41:57.514Z,118.90
2018-05-31T04:42:29.189Z,125.55
2018-05-31T04:43:00.875Z,116.47
2018-05-31T04:43:32.502Z,121.25
2018-05-31T04:44:04.163Z,121.28
2018-05-31T04:44:35.829Z,118.97
2018-05-31T04:45:07.489Z,125.68
2018-05-31T04:45:39.131Z,121.65
2018-05-31T04:46:10.797Z,126.95
2018-05-31T04:46:42.493Z,119.78
2018-05-31T04:47:14.131Z,125.05
2018-05-31T04:47:45.811Z,124.32
2018-05-31T04:48:17.466Z,121.78
2018-05-31T04:48:49.156Z,122.05
2018-05-31T04:49:20.824Z,117.30
2018-05-31T04:49:52.467Z,116.22
2018-05-31T04:50:24.582Z,116.88
2018-05-31T04:50:56.253Z,121.00
2018-05-31T04:51:27.919Z,126.70
2018-05-31T04:51:59.581Z,117.55
2018-05-31T04:52:31.239Z,112.00
2018-05-31T04:53:02.905Z,121.50
2018-05-31T04:53:34.557Z,116.95
2018-05-31T04:54:06.185Z,119.05
2018-05-31T04:54:37.873Z,120.20
2018-05-31T04:55:09.537Z,114.72
2018-05-31T04:55:41.199Z,119.13
2018-05-31T04:56:12.853Z,121.10
2018-05-31T04:56:44.509Z,118.68
2018-05-31T04:57:16.170Z,113.78
2018-05-31T04:57:47.820Z,113.30
2018-05-31T04:58:19.469Z,123.72
2018-05-31T04:58:51.127Z,110.20
2018-05-31T04:59:22.771Z,112.47
2018-05-31T04:59:54.411Z,112.22
2018-05-31T05:00:26.059Z,115.62
2018-05-31T05:00:58.357Z,108.68
2018-05-31T05:01:30.021Z,109.32
2018-05-31T05:02:01.647Z,107.72
2018-05-31T05:02:33.340Z,104.05
2018-05-31T05:03:05.017Z,106.10
2018-05-31T05:03:36.763Z,106.60
2018-05-31T05:04:08.405Z,107.43
2018-05-31T05:04:40.045Z,114.85
2018-05-31T05:05:11.730Z,102.20
2018-05-31T05:05:43.373Z,101.87
2018-05-31T05:06:15.027Z,103.00
2018-05-31T05:06:46.675Z,103.10
2018-05-31T05:07:18.319Z,99.60
2018-05-31T05:07:49.979Z,105.25
2018-05-31T05:08:21.647Z,107.03
2018-05-31T05:08:53.307Z,107.97
2018-05-31T05:09:24.975Z,100.90
2018-05-31T05:09:56.631Z,98.93
2018-05-31T05:10:28.298Z,98.10
2018-05-31T05:10:59.987Z,103.12
2018-05-31T05:11:31.667Z,105.67
2018-05-31T05:12:03.343Z,111.25
2018-05-31T05:12:35.014Z,101.28
2018-05-31T05:13:06.683Z,98.45
2018-05-31T05:13:38.331Z,99.78
2018-05-31T05:14:09.995Z,100.40
2018-05-31T05:14:41.646Z,105.28
2018-05-31T05:15:13.323Z,101.70
2018-05-31T05:15:45.023Z,97.47
2018-05-31T05:16:17.270Z,102.40
2018-05-31T05:16:48.961Z,105.65
2018-05-31T05:17:20.603Z,97.97
2018-05-31T05:17:52.247Z,96.47
2018-05-31T05:18:23.903Z,100.50
2018-05-31T05:18:55.563Z,96.57
2018-05-31T05:19:27.211Z,96.93
2018-05-31T05:19:58.891Z,98.32
2018-05-31T05:20:30.523Z,92.90
2018-05-31T05:21:02.188Z,100.70
2018-05-31T05:21:33.897Z,106.53
2018-05-31T05:22:05.519Z,96.97
2018-05-31T05:22:37.172Z,98.90
2018-05-31T05:23:08.813Z,100.03
2018-05-31T05:23:40.459Z,96.87
2018-05-31T05:24:12.110Z,100.12
2018-05-31T05:24:43.815Z,98.10
2018-05-31T05:25:15.500Z,102.53
2018-05-31T05:25:47.172Z,106.80
2018-05-31T05:26:18.840Z,100.53
2018-05-31T05:26:50.555Z,93.43
2018-05-31T05:27:22.234Z,98.60
2018-05-31T05:27:53.885Z,94.40
2018-05-31T05:28:25.517Z,99.35
2018-05-31T05:28:57.179Z,98.22
2018-05-31T05:29:28.838Z,99.43
2018-05-31T05:30:00.484Z,101.32
2018-05-31T05:30:32.155Z,97.72
2018-05-31T05:31:03.860Z,105.85
2018-05-31T05:31:35.491Z,96.90
2018-05-31T05:32:07.157Z,96.50
2018-05-31T05:32:38.805Z,99.65
2018-05-31T05:33:10.460Z,95.45
2018-05-31T05:33:42.086Z,102.25
2018-05-31T05:34:14.731Z,99.50
2018-05-31T05:34:46.371Z,103.47
2018-05-31T05:35:18.009Z,106.87
2018-05-31T05:35:49.677Z,106.70
2018-05-31T05:36:21.305Z,107.43
2018-05-31T05:36:52.961Z,96.55
2018-05-31T05:37:24.621Z,100.90
2018-05-31T05:37:56.300Z,102.40
2018-05-31T05:38:27.951Z,104.25
2018-05-31T05:38:59.639Z,100.50
2018-05-31T05:39:31.289Z,104.93
2018-05-31T05:40:02.977Z,100.15
2018-05-31T05:40:34.642Z,104.87
2018-05-31T05:41:06.281Z,101.00
2018-05-31T05:41:37.956Z,100.10
2018-05-31T05:42:09.603Z,101.10
2018-05-31T05:42:41.236Z,106.53
2018-05-31T05:43:12.883Z,102.28
2018-05-31T05:43:44.545Z,111.82
2018-05-31T05:44:16.229Z,105.10
2018-05-31T05:44:47.903Z,101.68
2018-05-31T05:45:19.563Z,99.50
2018-05-31T05:45:51.220Z,104.75
2018-05-31T05:46:22.862Z,101.97
2018-05-31T05:46:54.507Z,104.65
2018-05-31T05:47:26.165Z,99.80
2018-05-31T05:47:57.843Z,103.30
2018-05-31T05:48:29.505Z,105.68
2018-05-31T05:49:01.211Z,98.43
2018-05-31T05:49:32.869Z,102.40
2018-05-31T05:50:04.565Z,96.28
2018-05-31T05:50:36.233Z,96.97
2018-05-31T05:51:07.927Z,96.87
2018-05-31T05:51:39.587Z,102.40
2018-05-31T05:52:11.239Z,102.53
2018-05-31T05:52:42.891Z,96.97
2018-05-31T05:53:15.395Z,93.50
2018-05-31T05:53:47.048Z,102.12
2018-05-31T05:54:18.715Z,96.32
2018-05-31T05:54:50.347Z,98.90
2018-05-31T05:55:21.987Z,100.50
2018-05-31T05:55:53.625Z,105.70
2018-05-31T05:56:25.317Z,98.68
2018-05-31T05:56:56.937Z,99.68
2018-05-31T05:57:29.587Z,98.57
2018-05-31T05:58:01.257Z,99.80
2018-05-31T05:58:32.901Z,96.43
2018-05-31T05:59:05.025Z,95.40
2018-05-31T05:59:36.657Z,92.10
2018-05-31T06:00:08.339Z,100.10
2018-05-31T06:00:39.986Z,95.38
2018-05-31T06:01:11.644Z,100.50
2018-05-31T06:01:43.327Z,93.53
2018-05-31T06:02:14.983Z,97.12
2018-05-31T06:02:47.507Z,96.22
2018-05-31T06:03:19.159Z,100.90
2018-05-31T06:03:50.774Z,98.95
2018-05-31T06:04:22.443Z,98.62
2018-05-31T06:04:54.087Z,98.15
2018-05-31T06:05:25.771Z,95.25
2018-05-31T06:05:57.455Z,99.87
2018-05-31T06:06:29.115Z,98.53
2018-05-31T06:07:00.779Z,92.50
2018-05-31T06:07:32.423Z,96.95
2018-05-31T06:08:04.102Z,98.37
2018-05-31T06:08:35.760Z,89.85
2018-05-31T06:09:07.404Z,92.07
2018-05-31T06:09:39.074Z,97.60
2018-05-31T06:10:10.803Z,101.18
2018-05-31T06:10:42.417Z,97.20
2018-05-31T06:11:14.119Z,98.53
2018-05-31T06:11:45.791Z,100.87
2018-05-31T06:12:17.433Z,96.65
2018-05-31T06:12:49.079Z,97.28
2018-05-31T06:13:21.585Z,102.03
2018-05-31T06:13:53.239Z,102.03
2018-05-31T06:14:24.917Z,102.97
2018-05-31T06:14:56.562Z,102.45
2018-05-31T06:15:28.214Z,97.90
2018-05-31T06:15:59.863Z,97.05
2018-05-31T06:16:31.527Z,103.12
2018-05-31T06:17:03.199Z,100.25
2018-05-31T06:17:34.932Z,98.25
2018-05-31T06:18:06.584Z,96.05
2018-05-31T06:18:38.233Z,97.93
2018-05-31T06:19:09.876Z,97.50
2018-05-31T06:19:41.595Z,100.93
2018-05-31T06:20:13.280Z,99.47
2018-05-31T06:20:44.963Z,93.05
2018-05-31T06:21:16.583Z,99.13
2018-05-31T06:21:48.267Z,95.43
2018-05-31T06:22:20.023Z,95.55
2018-05-31T06:22:52.577Z,96.87
2018-05-31T06:23:24.298Z,98.03
2018-05-31T06:23:56.588Z,92.65
2018-05-31T06:24:28.281Z,92.95
2018-05-31T06:24:59.899Z,97.50
2018-05-31T06:25:31.535Z,92.68
2018-05-31T06:26:03.184Z,93.83
2018-05-31T06:26:34.824Z,88.32
2018-05-31T06:27:06.463Z,91.03
2018-05-31T06:27:38.187Z,87.17
2018-05-31T06:28:09.891Z,92.57
2018-05-31T06:28:41.531Z,87.20
2018-05-31T06:29:13.171Z,91.45
2018-05-31T06:29:44.847Z,93.55
2018-05-31T06:30:16.487Z,92.82
2018-05-31T06:30:48.129Z,83.37
2018-05-31T06:31:19.779Z,87.40
2018-05-31T06:31:51.406Z,89.25
2018-05-31T06:32:24.048Z,85.28
2018-05-31T06:32:55.715Z,83.20
2018-05-31T06:33:27.374Z,84.65
2018-05-31T06:33:59.050Z,84.82
2018-05-31T06:34:30.679Z,85.93
2018-05-31T06:35:02.411Z,86.07
2018-05-31T06:35:34.087Z,87.15
2018-05-31T06:36:06.789Z,88.95
2018-05-31T06:36:38.417Z,89.78
2018-05-31T06:37:10.080Z,80.93
2018-05-31T06:37:42.609Z,86.45
2018-05-31T06:38:14.254Z,84.78
2018-05-31T06:38:45.908Z,78.57
2018-05-31T06:39:17.977Z,84.72
2018-05-31T06:39:50.515Z,81.07
2018-05-31T06:40:22.195Z,82.10
2018-05-31T06:40:53.837Z,80.70
2018-05-31T06:41:25.503Z,84.70
2018-05-31T06:41:57.135Z,83.53
2018-05-31T06:42:28.798Z,79.93
2018-05-31T06:43:00.487Z,83.87
2018-05-31T06:43:32.096Z,80.45
2018-05-31T06:44:03.747Z,80.40
2018-05-31T06:44:35.419Z,85.05
2018-05-31T06:45:09.973Z,82.55
2018-05-31T06:45:42.471Z,85.18
2018-05-31T06:46:14.137Z,84.18
2018-05-31T06:46:45.783Z,88.05
2018-05-31T06:47:18.358Z,85.35
2018-05-31T06:47:50.019Z,86.93
2018-05-31T06:48:22.597Z,82.72
2018-05-31T06:48:54.224Z,89.43
2018-05-31T06:49:26.773Z,84.13
2018-05-31T06:49:58.423Z,83.30